createdAt,value
2018-10-09T00:01:52.536Z,27.33
2018-10-09T00:04:21.020Z,28.67
2018-10-09T00:06:49.521Z,26.47
2018-10-09T00:09:18.005Z,25.87
2018-10-09T00:11:46.506Z,25.67
2018-10-09T00:14:14.960Z,22.30
2018-10-09T00:16:43.428Z,19.47
2018-10-09T00:19:11.925Z,22.87
2018-10-09T00:21:40.405Z,23.40
2018-10-09T00:24:08.894Z,25.77
2018-10-09T00:26:37.417Z,22.57
2018-10-09T00:29:06.076Z,23.13
2018-10-09T00:31:34.549Z,29.60
2018-10-09T00:34:03.163Z,23.00
2018-10-09T00:36:31.648Z,29.40
2018-10-09T00:39:00.144Z,24.27
2018-10-09T00:41:28.640Z,26.53
2018-10-09T00:43:57.205Z,25.53
2018-10-09T00:46:25.731Z,25.50
2018-10-09T00:48:54.213Z,23.70
2018-10-09T00:51:22.738Z,25.60
2018-10-09T00:53:51.232Z,29.90
2018-10-09T00:56:19.802Z,31.37
2018-10-09T00:58:48.272Z,29.93
2018-10-09T01:01:16.820Z,28.43
2018-10-09T01:03:45.287Z,23.97
2018-10-09T01:06:13.754Z,23.30
2018-10-09T01:08:42.202Z,21.80
2018-10-09T01:11:10.943Z,28.10
2018-10-09T01:13:39.379Z,22.17
2018-10-09T01:16:08.200Z,24.90
2018-10-09T01:18:36.656Z,23.93
2018-10-09T01:21:05.125Z,23.43
2018-10-09T01:23:33.612Z,21.30
2018-10-09T01:26:02.080Z,30.13
2018-10-09T01:28:30.568Z,22.83
2018-10-09T01:30:59.045Z,24.20
2018-10-09T01:33:27.548Z,25.90
2018-10-09T01:35:56.033Z,22.07
2018-10-09T01:38:24.528Z,23.70
2018-10-09T01:40:52.992Z,32.57
2018-10-09T01:43:21.509Z,24.87
2018-10-09T01:45:50.089Z,22.50
2018-10-09T01:48:18.564Z,26.20
2018-10-09T01:50:47.061Z,25.00
2018-10-09T01:53:15.528Z,25.70
2018-10-09T01:55:44.046Z,27.50
2018-10-09T01:58:12.513Z,26.17
2018-10-09T02:00:40.980Z,24.27
2018-10-09T02:03:09.497Z,26.57
2018-10-09T02:05:38.015Z,24.03
2018-10-09T02:08:06.501Z,30.90
2018-10-09T02:10:35.024Z,39.40
2018-10-09T02:13:03.517Z,33.50
2018-10-09T02:15:31.976Z,50.83
2018-10-09T02:18:00.472Z,40.60
2018-10-09T02:20:28.942Z,30.80
2018-10-09T02:22:57.436Z,33.27
2018-10-09T02:25:25.892Z,50.53
2018-10-09T02:27:54.385Z,49.03
2018-10-09T02:30:22.864Z,101.43
2018-10-09T02:32:51.373Z,28.63
2018-10-09T02:35:19.842Z,48.33
2018-10-09T02:37:48.340Z,63.67
2018-10-09T02:40:16.817Z,43.63
2018-10-09T02:42:45.356Z,209.93
2018-10-09T02:45:13.913Z,34.20
2018-10-09T02:47:42.449Z,30.70
2018-10-09T02:50:10.946Z,31.13
2018-10-09T02:52:39.472Z,27.27
2018-10-09T02:55:08.009Z,44.47
2018-10-09T02:57:36.669Z,32.47
2018-10-09T03:00:05.264Z,30.17
2018-10-09T03:02:33.792Z,31.73
2018-10-09T03:05:02.294Z,31.50
2018-10-09T03:07:30.857Z,27.63
2018-10-09T03:09:59.470Z,26.97
2018-10-09T03:12:27.992Z,37.57
2018-10-09T03:14:56.582Z,39.30
2018-10-09T03:17:25.120Z,25.80
2018-10-09T03:19:53.644Z,26.30
2018-10-09T03:22:22.276Z,23.50
2018-10-09T03:24:50.806Z,34.60
2018-10-09T03:27:19.288Z,25.80
2018-10-09T03:29:47.817Z,28.00
2018-10-09T03:32:16.312Z,23.87
2018-10-09T03:34:44.825Z,23.37
2018-10-09T03:37:13.320Z,22.93
2018-10-09T03:39:41.837Z,26.67
2018-10-09T03:42:10.313Z,28.83
2018-10-09T03:44:38.833Z,27.00
2018-10-09T03:47:07.345Z,62.10
2018-10-09T03:49:35.833Z,31.40
2018-10-09T03:52:04.376Z,38.90
2018-10-09T03:54:33.001Z,30.70
2018-10-09T03:57:01.561Z,33.20
2018-10-09T03:59:30.056Z,81.27
2018-10-09T04:01:58.568Z,35.37
2018-10-09T04:04:27.049Z,37.73
2018-10-09T04:06:55.572Z,168.27
2018-10-09T04:09:24.068Z,27.90
2018-10-09T04:11:52.581Z,56.90
2018-10-09T04:14:21.076Z,43.43
2018-10-09T04:16:49.592Z,37.20
2018-10-09T04:19:18.115Z,38.93
2018-10-09T04:21:46.607Z,46.90
2018-10-09T04:24:15.137Z,252.93
2018-10-09T04:26:43.633Z,295.93
2018-10-09T04:29:12.152Z,177.07
2018-10-09T04:31:40.657Z,236.17
2018-10-09T04:34:09.440Z,45.20
2018-10-09T04:36:37.932Z,50.97
2018-10-09T04:39:08.345Z,63.23
2018-10-09T04:41:36.893Z,80.93
2018-10-09T04:44:05.425Z,36.37
2018-10-09T04:46:33.904Z,46.47
2018-10-09T04:49:02.416Z,60.00
2018-10-09T04:51:31.333Z,70.73
2018-10-09T04:53:59.858Z,183.40
2018-10-09T04:56:28.340Z,193.50
2018-10-09T04:58:56.911Z,104.80
2018-10-09T05:01:25.404Z,158.10
2018-10-09T05:03:53.925Z,94.53
2018-10-09T05:06:22.428Z,68.83
2018-10-09T05:08:50.904Z,89.70
2018-10-09T05:11:19.528Z,75.20
2018-10-09T05:13:48.013Z,71.57
2018-10-09T05:16:16.617Z,74.03
2018-10-09T05:18:45.101Z,48.50
2018-10-09T05:21:13.632Z,41.60
2018-10-09T05:23:42.113Z,57.03
2018-10-09T05:26:10.684Z,34.50
2018-10-09T05:28:39.168Z,39.60
2018-10-09T05:31:07.782Z,111.00
2018-10-09T05:33:36.249Z,70.53
2018-10-09T05:36:04.769Z,142.77
2018-10-09T05:38:33.249Z,68.17
2018-10-09T05:41:01.777Z,80.17
2018-10-09T05:43:30.264Z,66.33
2018-10-09T05:45:58.788Z,149.50
2018-10-09T05:48:27.280Z,146.77
2018-10-09T05:50:55.797Z,38.63
2018-10-09T05:53:24.289Z,160.43
2018-10-09T05:55:52.802Z,58.63
2018-10-09T05:58:21.293Z,187.43
2018-10-09T06:00:49.848Z,110.93
2018-10-09T06:03:18.349Z,145.00
2018-10-09T06:05:47.208Z,115.00
2018-10-09T06:08:15.962Z,57.43
2018-10-09T06:10:44.484Z,100.73
2018-10-09T06:13:13.000Z,130.17
2018-10-09T06:15:41.625Z,61.57
2018-10-09T06:18:10.650Z,70.63
2018-10-09T06:20:39.193Z,165.93
2018-10-09T06:23:07.905Z,164.97
2018-10-09T06:25:36.405Z,128.07
2018-10-09T06:28:05.692Z,225.63
2018-10-09T06:30:34.487Z,67.87
2018-10-09T06:33:03.010Z,48.73
2018-10-09T06:35:31.506Z,259.47
2018-10-09T06:38:00.022Z,42.47
2018-10-09T06:40:28.564Z,53.07
2018-10-09T06:42:57.330Z,45.70
2018-10-09T06:45:25.984Z,87.97
2018-10-09T06:47:54.473Z,68.30
2018-10-09T06:50:22.988Z,52.10
2018-10-09T06:52:51.492Z,39.20
2018-10-09T06:55:20.017Z,68.07
2018-10-09T06:57:48.508Z,86.80
2018-10-09T07:00:17.123Z,38.47
2018-10-09T07:02:45.532Z,37.83
2018-10-09T07:05:14.053Z,64.00
2018-10-09T07:07:42.544Z,39.13
2018-10-09T07:10:11.077Z,82.20
2018-10-09T07:12:39.675Z,77.40
2018-10-09T07:15:08.757Z,161.83
2018-10-09T07:17:37.257Z,70.17
2018-10-09T07:20:05.801Z,101.83
2018-10-09T07:22:34.365Z,58.03
2018-10-09T07:25:02.902Z,101.53
2018-10-09T07:27:31.402Z,46.40
2018-10-09T07:30:00.014Z,55.63
2018-10-09T07:32:28.505Z,52.73
2018-10-09T07:34:57.049Z,49.73
2018-10-09T07:37:25.566Z,64.73
2018-10-09T07:39:54.144Z,47.50
2018-10-09T07:42:22.641Z,50.73
2018-10-09T07:44:51.145Z,47.70
2018-10-09T07:47:19.753Z,40.07
2018-10-09T07:49:48.258Z,54.33
2018-10-09T07:52:16.745Z,54.93
2018-10-09T07:54:45.297Z,50.83
2018-10-09T07:57:13.817Z,58.20
2018-10-09T07:59:42.335Z,55.37
2018-10-09T08:02:10.858Z,52.60
2018-10-09T08:04:39.386Z,49.50
2018-10-09T08:07:07.925Z,47.80
2018-10-09T08:09:36.417Z,50.23
2018-10-09T08:12:05.005Z,51.33
2018-10-09T08:14:33.498Z,48.57
2018-10-09T08:17:02.182Z,55.37
2018-10-09T08:19:30.657Z,61.80
2018-10-09T08:21:59.289Z,59.13
2018-10-09T08:24:27.779Z,54.10
2018-10-09T08:26:56.286Z,66.00
2018-10-09T08:29:24.774Z,60.60
2018-10-09T08:31:53.293Z,62.37
2018-10-09T08:34:21.809Z,61.77
2018-10-09T08:36:50.409Z,63.33
2018-10-09T08:39:18.856Z,65.90
2018-10-09T08:41:47.337Z,61.27
2018-10-09T08:44:15.853Z,54.83
2018-10-09T08:46:44.344Z,50.57
2018-10-09T08:49:12.859Z,59.40
2018-10-09T08:51:41.340Z,58.60
2018-10-09T08:54:09.868Z,60.67
2018-10-09T08:56:38.401Z,56.27
2018-10-09T08:59:06.932Z,54.90
2018-10-09T09:01:35.425Z,54.97
2018-10-09T09:04:03.953Z,54.70
2018-10-09T09:06:32.481Z,54.80
2018-10-09T09:09:00.965Z,59.10
2018-10-09T09:11:29.486Z,58.13
2018-10-09T09:13:58.023Z,57.07
2018-10-09T09:16:26.565Z,60.37
2018-10-09T09:18:55.058Z,60.00
2018-10-09T09:21:23.597Z,59.90
2018-10-09T09:23:52.103Z,56.10
2018-10-09T09:26:20.654Z,53.77
2018-10-09T09:28:49.121Z,56.07
2018-10-09T09:31:17.611Z,53.53
2018-10-09T09:33:46.237Z,53.97
2018-10-09T09:36:14.809Z,53.07
2018-10-09T09:38:43.321Z,57.00
2018-10-09T09:41:11.952Z,56.87
2018-10-09T09:43:40.481Z,52.60
2018-10-09T09:46:08.984Z,52.90
2018-10-09T09:48:37.519Z,52.97
2018-10-09T09:51:06.185Z,57.40
2018-10-09T09:53:34.961Z,52.63
2018-10-09T09:56:03.492Z,47.47
2018-10-09T09:58:32.076Z,44.30
2018-10-09T10:01:05.965Z,44.70
2018-10-09T10:03:34.502Z,43.67
2018-10-09T10:06:03.749Z,43.37
2018-10-09T10:08:32.238Z,39.97
2018-10-09T10:11:00.784Z,36.60
2018-10-09T10:13:29.305Z,35.67
2018-10-09T10:15:57.813Z,37.40
2018-10-09T10:18:26.868Z,33.53
2018-10-09T10:20:55.389Z,34.90
2018-10-09T10:23:23.881Z,30.97
2018-10-09T10:25:52.477Z,31.50
2018-10-09T10:28:20.997Z,34.63
2018-10-09T10:30:49.530Z,32.83
2018-10-09T10:33:18.025Z,31.27
2018-10-09T10:35:46.624Z,30.23
2018-10-09T10:38:15.045Z,34.20
2018-10-09T10:40:43.566Z,38.63
2018-10-09T10:43:12.057Z,32.80
2018-10-09T10:45:40.570Z,33.93
2018-10-09T10:48:09.081Z,33.00
2018-10-09T10:50:37.594Z,33.17
2018-10-09T10:53:06.105Z,36.53
2018-10-09T10:55:34.610Z,29.63
2018-10-09T10:58:03.136Z,31.90
2018-10-09T11:00:31.644Z,30.47
2018-10-09T11:03:00.142Z,30.67
2018-10-09T11:05:28.666Z,33.10
2018-10-09T11:07:57.277Z,29.47
2018-10-09T11:10:25.732Z,31.63
2018-10-09T11:12:54.277Z,35.93
2018-10-09T11:15:22.756Z,30.87
2018-10-09T11:17:51.312Z,31.77
2018-10-09T11:20:20.013Z,30.13
2018-10-09T11:22:48.545Z,30.57
2018-10-09T11:25:17.057Z,30.20
2018-10-09T11:27:45.580Z,31.30
2018-10-09T11:30:14.071Z,30.77
2018-10-09T11:32:42.554Z,36.43
2018-10-09T11:35:11.070Z,28.83
2018-10-09T11:37:39.558Z,28.70
2018-10-09T11:40:08.141Z,27.90
2018-10-09T11:42:36.681Z,27.67
2018-10-09T11:45:05.197Z,26.23
2018-10-09T11:47:33.689Z,26.80
2018-10-09T11:50:02.222Z,28.00
2018-10-09T11:52:30.729Z,27.73
2018-10-09T11:54:59.249Z,26.33
2018-10-09T11:57:27.737Z,27.07
2018-10-09T11:59:56.222Z,27.97
2018-10-09T12:02:24.734Z,26.80
2018-10-09T12:04:53.220Z,29.97
2018-10-09T12:07:21.740Z,30.00
2018-10-09T12:09:50.277Z,27.43
2018-10-09T12:12:18.838Z,28.00
2018-10-09T12:14:47.324Z,26.40
2018-10-09T12:17:15.825Z,26.30
2018-10-09T12:19:44.309Z,24.87
2018-10-09T12:22:12.839Z,25.27
2018-10-09T12:24:41.321Z,23.63
2018-10-09T12:27:09.902Z,25.30
2018-10-09T12:29:38.432Z,22.17
2018-10-09T12:32:06.994Z,23.03
2018-10-09T12:34:35.472Z,25.33
2018-10-09T12:37:03.997Z,21.27
2018-10-09T12:39:32.476Z,24.17
2018-10-09T12:42:00.989Z,27.40
2018-10-09T12:44:29.556Z,24.77
2018-10-09T12:46:58.012Z,24.00
2018-10-09T12:49:26.489Z,22.37
2018-10-09T12:51:55.033Z,22.57
2018-10-09T12:54:23.522Z,22.50
2018-10-09T12:56:52.035Z,23.93
2018-10-09T12:59:20.519Z,22.50
2018-10-09T13:01:49.105Z,21.67
2018-10-09T13:04:17.581Z,23.20
2018-10-09T13:06:46.101Z,26.60
2018-10-09T13:09:14.921Z,25.20
2018-10-09T13:11:43.797Z,26.03
2018-10-09T13:14:12.287Z,27.40
2018-10-09T13:16:40.814Z,26.20
2018-10-09T13:19:09.321Z,21.60
2018-10-09T13:21:38.379Z,22.67
2018-10-09T13:24:06.977Z,25.97
2018-10-09T13:26:35.495Z,22.17
2018-10-09T13:29:04.017Z,24.93
2018-10-09T13:31:32.548Z,23.37
2018-10-09T13:34:01.111Z,23.17
2018-10-09T13:36:29.562Z,26.60
2018-10-09T13:38:58.065Z,25.90
2018-10-09T13:41:26.562Z,25.93
2018-10-09T13:43:55.086Z,24.50
2018-10-09T13:46:23.572Z,22.47
2018-10-09T13:48:52.094Z,23.97
2018-10-09T13:51:20.593Z,21.80
2018-10-09T13:53:49.080Z,21.60
2018-10-09T13:56:17.592Z,24.90
2018-10-09T13:58:46.100Z,21.57
2018-10-09T14:01:14.630Z,22.93
2018-10-09T14:03:43.117Z,21.20
2018-10-09T14:06:11.738Z,21.80
2018-10-09T14:08:40.129Z,21.63
2018-10-09T14:11:08.833Z,19.80
2018-10-09T14:13:37.324Z,21.37
2018-10-09T14:16:05.874Z,21.23
2018-10-09T14:18:34.412Z,19.47
2018-10-09T14:21:02.928Z,20.87
2018-10-09T14:23:31.418Z,18.93
2018-10-09T14:25:59.977Z,22.87
2018-10-09T14:28:28.466Z,23.70
2018-10-09T14:30:56.998Z,19.80
2018-10-09T14:33:25.761Z,19.40
2018-10-09T14:35:54.302Z,20.53
2018-10-09T14:38:22.813Z,20.70
2018-10-09T14:40:51.326Z,18.90
2018-10-09T14:43:19.836Z,21.77
2018-10-09T14:45:48.348Z,19.10
2018-10-09T14:48:16.837Z,17.80
2018-10-09T14:50:45.357Z,17.97
2018-10-09T14:53:13.852Z,18.10
2018-10-09T14:55:42.374Z,17.63
2018-10-09T14:58:10.884Z,19.70
2018-10-09T15:00:39.397Z,15.87
2018-10-09T15:03:07.897Z,19.40
2018-10-09T15:05:36.409Z,17.53
2018-10-09T15:08:04.892Z,16.70
2018-10-09T15:10:33.406Z,18.93
2018-10-09T15:13:01.886Z,16.47
2018-10-09T15:15:30.412Z,18.53
2018-10-09T15:17:58.909Z,15.87
2018-10-09T15:20:27.426Z,18.13
2018-10-09T15:22:55.919Z,16.40
2018-10-09T15:25:24.421Z,14.63
2018-10-09T15:27:52.972Z,15.27
2018-10-09T15:30:21.489Z,16.83
2018-10-09T15:32:50.057Z,19.00
2018-10-09T15:35:18.601Z,15.37
2018-10-09T15:37:47.064Z,15.40
2018-10-09T15:40:15.581Z,15.00
2018-10-09T15:42:44.064Z,17.80
2018-10-09T15:45:12.553Z,15.50
2018-10-09T15:47:41.057Z,14.83
2018-10-09T15:50:09.552Z,20.30
2018-10-09T15:52:38.062Z,16.90
2018-10-09T15:55:06.565Z,15.93
2018-10-09T15:57:35.090Z,15.47
2018-10-09T16:00:03.931Z,15.67
2018-10-09T16:02:32.460Z,15.27
2018-10-09T16:05:00.937Z,19.73
2018-10-09T16:07:29.469Z,19.30
2018-10-09T16:09:57.965Z,16.63
2018-10-09T16:12:26.583Z,16.57
2018-10-09T16:14:55.073Z,20.20
2018-10-09T16:17:23.588Z,16.67
2018-10-09T16:19:52.069Z,17.93
2018-10-09T16:22:20.580Z,25.03
2018-10-09T16:24:49.065Z,18.27
2018-10-09T16:27:17.569Z,16.17
2018-10-09T16:29:46.057Z,16.00
2018-10-09T16:32:14.595Z,18.40
2018-10-09T16:34:43.065Z,16.13
2018-10-09T16:37:12.204Z,17.57
2018-10-09T16:39:40.688Z,21.43
2018-10-09T16:42:09.217Z,20.40
2018-10-09T16:44:37.706Z,20.23
2018-10-09T16:47:07.001Z,16.30
2018-10-09T16:49:37.145Z,21.33
2018-10-09T16:52:05.708Z,18.67
2018-10-09T16:54:34.193Z,19.50
2018-10-09T16:57:02.770Z,20.43
2018-10-09T16:59:31.261Z,20.07
2018-10-09T17:01:59.788Z,23.80
2018-10-09T17:04:28.281Z,23.63
2018-10-09T17:06:56.854Z,23.33
2018-10-09T17:09:25.345Z,22.63
2018-10-09T17:11:53.875Z,23.13
2018-10-09T17:14:22.356Z,19.77
2018-10-09T17:16:50.868Z,21.20
2018-10-09T17:19:19.341Z,24.10
2018-10-09T17:21:47.856Z,21.53
2018-10-09T17:24:16.338Z,23.53
2018-10-09T17:26:44.941Z,22.73
2018-10-09T17:29:13.365Z,20.60
2018-10-09T17:31:41.857Z,21.17
2018-10-09T17:34:10.361Z,24.10
2018-10-09T17:36:39.106Z,20.50
2018-10-09T17:39:09.814Z,20.67
2018-10-09T17:41:38.533Z,19.97
2018-10-09T17:44:07.236Z,28.00
2018-10-09T17:46:35.726Z,24.80
2018-10-09T17:49:04.252Z,23.60
2018-10-09T17:51:32.746Z,26.43
2018-10-09T17:54:01.280Z,25.60
2018-10-09T17:56:29.767Z,25.10
2018-10-09T17:58:58.273Z,26.27
2018-10-09T18:01:26.753Z,26.47
2018-10-09T18:03:55.260Z,23.53
2018-10-09T18:06:23.741Z,26.00
2018-10-09T18:08:52.269Z,21.03
2018-10-09T18:11:20.753Z,24.37
2018-10-09T18:13:49.266Z,23.70
2018-10-09T18:16:17.756Z,29.73
2018-10-09T18:18:46.264Z,31.20
2018-10-09T18:21:14.746Z,25.63
2018-10-09T18:23:43.257Z,31.97
2018-10-09T18:26:11.766Z,29.10
2018-10-09T18:28:40.289Z,21.20
2018-10-09T18:31:08.780Z,27.67
2018-10-09T18:33:37.293Z,27.00
2018-10-09T18:36:05.801Z,28.63
2018-10-09T18:38:34.318Z,26.17
2018-10-09T18:41:02.890Z,31.63
2018-10-09T18:43:31.333Z,27.27
2018-10-09T18:45:59.820Z,27.63
2018-10-09T18:48:28.329Z,28.40
2018-10-09T18:50:56.809Z,27.10
2018-10-09T18:53:25.314Z,25.50
2018-10-09T18:55:53.793Z,28.50
2018-10-09T18:58:22.293Z,24.73
2018-10-09T19:00:50.797Z,27.90
2018-10-09T19:03:19.312Z,27.80
2018-10-09T19:05:47.800Z,31.77
2018-10-09T19:08:16.301Z,27.43
2018-10-09T19:10:44.857Z,34.60
2018-10-09T19:13:13.360Z,31.90
2018-10-09T19:15:41.846Z,28.13
2018-10-09T19:18:10.359Z,29.20
2018-10-09T19:20:38.870Z,27.43
2018-10-09T19:23:07.597Z,30.80
2018-10-09T19:25:36.125Z,27.77
2018-10-09T19:28:04.618Z,25.90
2018-10-09T19:30:33.157Z,25.13
2018-10-09T19:33:01.643Z,24.00
2018-10-09T19:35:30.160Z,28.30
2018-10-09T19:37:58.637Z,32.30
2018-10-09T19:40:27.140Z,26.27
2018-10-09T19:42:55.629Z,25.80
2018-10-09T19:45:24.134Z,26.23
2018-10-09T19:47:52.648Z,25.27
2018-10-09T19:50:21.153Z,27.13
2018-10-09T19:52:49.632Z,26.20
2018-10-09T19:55:18.149Z,31.70
2018-10-09T19:57:46.638Z,25.90
2018-10-09T20:00:15.149Z,26.07
2018-10-09T20:02:43.645Z,28.63
2018-10-09T20:05:12.150Z,29.87
2018-10-09T20:07:40.676Z,26.67
2018-10-09T20:10:09.201Z,27.90
2018-10-09T20:12:37.697Z,38.23
2018-10-09T20:15:06.270Z,25.63
2018-10-09T20:17:34.757Z,32.10
2018-10-09T20:20:03.306Z,27.60
2018-10-09T20:22:31.798Z,25.63
2018-10-09T20:25:00.321Z,34.50
2018-10-09T20:27:28.804Z,35.90
2018-10-09T20:29:57.329Z,28.17
2018-10-09T20:32:25.813Z,30.87
2018-10-09T20:34:54.328Z,29.83
2018-10-09T20:37:23.053Z,30.43
2018-10-09T20:39:51.561Z,25.30
2018-10-09T20:42:20.036Z,34.57
2018-10-09T20:44:48.573Z,24.13
2018-10-09T20:47:21.277Z,29.50
2018-10-09T20:49:49.788Z,26.60
2018-10-09T20:52:18.276Z,22.20
2018-10-09T20:54:46.787Z,26.03
2018-10-09T20:57:15.269Z,28.60
2018-10-09T20:59:43.861Z,26.70
2018-10-09T21:02:12.337Z,32.53
2018-10-09T21:04:40.845Z,28.43
2018-10-09T21:07:09.316Z,26.90
2018-10-09T21:09:37.849Z,27.87
2018-10-09T21:12:06.337Z,32.63
2018-10-09T21:14:34.825Z,33.00
2018-10-09T21:17:03.348Z,28.03
2018-10-09T21:19:31.870Z,31.50
2018-10-09T21:22:00.377Z,35.03
2018-10-09T21:24:30.053Z,33.77
2018-10-09T21:26:58.549Z,27.47
2018-10-09T21:29:27.048Z,40.77
2018-10-09T21:31:55.564Z,36.07
2018-10-09T21:34:24.402Z,34.70
2018-10-09T21:36:52.920Z,31.30
2018-10-09T21:39:21.401Z,39.50
2018-10-09T21:41:49.913Z,39.23
2018-10-09T21:44:18.392Z,36.63
2018-10-09T21:46:46.901Z,28.57
2018-10-09T21:49:15.384Z,29.27
2018-10-09T21:51:43.912Z,31.77
2018-10-09T21:54:12.409Z,27.20
2018-10-09T21:56:40.929Z,34.83
2018-10-09T21:59:09.413Z,28.97
2018-10-09T22:01:37.928Z,29.60
2018-10-09T22:04:06.421Z,34.47
2018-10-09T22:06:34.940Z,29.00
2018-10-09T22:09:04.037Z,30.73
2018-10-09T22:11:32.568Z,49.07
2018-10-09T22:14:01.036Z,32.63
2018-10-09T22:16:29.555Z,31.50
2018-10-09T22:18:58.043Z,30.87
2018-10-09T22:21:26.561Z,39.57
2018-10-09T22:23:55.045Z,30.33
2018-10-09T22:26:23.569Z,33.77
2018-10-09T22:28:52.049Z,31.63
2018-10-09T22:31:20.573Z,30.43
2018-10-09T22:33:49.057Z,30.37
2018-10-09T22:36:17.565Z,31.80
2018-10-09T22:38:46.085Z,30.07
2018-10-09T22:41:14.607Z,32.87
2018-10-09T22:43:43.121Z,29.60
2018-10-09T22:46:11.626Z,30.27
2018-10-09T22:48:40.105Z,31.97
2018-10-09T22:51:08.638Z,30.93
2018-10-09T22:53:37.121Z,30.83
2018-10-09T22:56:05.636Z,29.40
2018-10-09T22:58:34.117Z,30.43
2018-10-09T23:01:02.637Z,35.70
2018-10-09T23:03:31.121Z,30.97
2018-10-09T23:05:59.601Z,30.23
2018-10-09T23:08:28.108Z,32.10
2018-10-09T23:10:56.581Z,32.70
2018-10-09T23:13:25.080Z,30.33
2018-10-09T23:15:53.557Z,29.53
2018-10-09T23:18:22.070Z,31.50
2018-10-09T23:20:50.549Z,29.17
2018-10-09T23:23:19.064Z,28.07
2018-10-09T23:25:47.701Z,29.80
2018-10-09T23:28:16.245Z,32.60
2018-10-09T23:30:44.736Z,31.13
2018-10-09T23:33:13.261Z,27.20
2018-10-09T23:35:41.753Z,33.73
2018-10-09T23:38:10.277Z,27.77
2018-10-09T23:40:38.757Z,29.20
2018-10-09T23:43:07.470Z,30.47
2018-10-09T23:45:36.041Z,28.67
2018-10-09T23:48:10.960Z,26.43
2018-10-09T23:50:41.113Z,26.97
2018-10-09T23:53:09.801Z,29.10
2018-10-09T23:55:38.932Z,30.37
2018-10-09T23:58:07.708Z,28.00
